Bayonne, NJ (07002)

5:59 PM EDT on August 27, 2014 (GMT -0400)
West Brighton | Change Station
CLOSE
Current Station
Personal Weather Station
Location: Staten Island, NY
Elevation: 121 ft
Nearby Weather Stations

Elev 121 ft 40.63 °N, 74.11 °W | Updated 14 minutes ago

Scattered Clouds
Scattered Clouds
87.6 °F
Feels Like 92 °F
N
3.1
Wind Variable Wind from SW

Today
High -- | Low -- °F
--% Chance of Precip.
Yesterday
High -- | Low -- °F
Precip. -- in
6:18 AM 7:36 PM
Waxing Crescent, 5% visible
Pressure 29.87 in
Visibility 10.0 miles
Clouds Scattered Clouds 6000 ft
Scattered Clouds 25000 ft
Heat Index 92 °F
Dew Point 69 °F
Humidity 54%
Rainfall 0.00 in
Snow Depth Not available.
UV 1 out of 12
Pollen 10.00 out of 12
PM2.5 Moderate
Flu Activity Not available.
METAR KEWR 272151Z 23008G15KT 10SM SCT060 SCT250 33/18 A2987 RMK AO2 SLP114 T03280178

More Conditions Fewer Conditions

Pressure 29.87 in
Visibility 10.0 miles
Clouds Scattered Clouds 6000 ft
Scattered Clouds 25000 ft
Heat Index 92 °F
Dew Point 69 °F
Humidity 54%
Rainfall 0.00 in
Snow Depth Not available.
UV 1 out of 12
Pollen 10.00 out of 12
PM2.5 Moderate
Flu Activity Not available.
METAR KEWR 272151Z 23008G15KT 10SM SCT060 SCT250 33/18 A2987 RMK AO2 SLP114 T03280178

More Conditions Fewer Conditions

10-Day Weather Forecast

Almanac

Astronomy

Aug. 27, 2014 Rise Set
Actual Time 6:18 AM EDT 7:36 PM EDT
Civil Twilight 5:50 AM EDT 8:04 PM EDT
Nautical Twilight 5:16 AM EDT 8:38 PM EDT
Astronomical Twilight 4:40 AM EDT 9:14 PM EDT
Moon 8:13 AM EDT 8:26 PM EDT
Length of Visible Light 14h 14m
Length of Day
13h 17m
Tomorrow will be 2m 33s shorter.
Waxing Crescent, 5% of the Moon is Illuminated
Today
Waxing Crescent
Sep 2
First Quarter
Sep 8
Full
Sep 15
Last Quarter
Sep 24
New

Today's Extremes

State Highs State Lows

Community

WunderPhotos

Upload Photos

1,747,791 photos uploaded!

Nearby

Air Quality

  Air Quality AQ Index Pollutant
Yesterday Good
OZONE
Yesterday Good
PM2.5
Current Moderate
PM2.5
Wednesday Moderate
OZONE
Wednesday Moderate
PM2.5
Thursday Good
OZONE
Thursday Good
PM2.5

Snow Depth

Station Depth Elevation
No new snow has been reported.

Earthquake Activity

City Distance Mag. Time & Date
No recent earthquake activity has been reported nearby.
Minimum magnitude displayed is 2.5.

Coastal Water Temperatures

Place Temperature
Sandy Hook, NJ 75.9 °F
The Battery, NY 75.0 °F
Bergen Point West Reach, NJ 75.0 °F
Kings Point, NY 75.9 °F

Nearby Weather Stations